Portada
METAR-TAF:

METAR-TAF

Aeroports :

Jaffrey, Nova Hampshire, Estats Units d'Amèrica

latitud: 42-48-21N, longitud: 072-00-02W, altitud: 317 m

Observació

L'informe es va fer fa 31 minuts, a les 08:52 UTC
Vent 5 kt del Sud/Sud-Oest
Temperatura 16°C
Humitat 88%
Pressió 1013 hPa
Visibilitat: 16.1 km
Escasses núvols a una alçada de 700 ft
Cel ennuvolat a una alçada de 3500 ft
Cel cobert a una alçada de 10000 ft

METAR: KAFN 160852Z AUTO 21005KT 10SM FEW007 BKN035 OVC100 16/14 A2991 RMK AO2 SLP128 60004 T01610144 53002

Hora: 05:23 (09:23 UTC)


TAF: manca

Observacions i pronòstics meteorològics de més de 4000 aeroports (METAR i TAF).

Les estacions disponibles són els punts grocs i vermells al mapa.

Posi el ratolí al punt desitjat per veure el nom de l'estació.

Feu clic per veure les observacions i els pronòstics meteorològics.

Per canviar el mapa: feu clic els botons verds amb una creu de color negre per apropar; al botó verd amb un guió per allunyar la imatge; o en les fletxes verdes per a mapes adjacents.


METAR-TAF: